sensor_id;sensor_type;location;lat;lon;timestamp;P1;durP1;ratioP1;P2;durP2;ratioP2
4698;SDS011;33708;49.466;11.176;2023-04-06T00:01:20;11.80;;;4.47;;
4698;SDS011;33708;49.466;11.176;2023-04-06T00:03:46;11.90;;;4.33;;
4698;SDS011;33708;49.466;11.176;2023-04-06T00:06:11;11.87;;;4.20;;
4698;SDS011;33708;49.466;11.176;2023-04-06T00:08:37;14.23;;;4.70;;
4698;SDS011;33708;49.466;11.176;2023-04-06T00:11:03;12.30;;;3.97;;
4698;SDS011;33708;49.466;11.176;2023-04-06T00:13:28;10.07;;;4.20;;
4698;SDS011;33708;49.466;11.176;2023-04-06T00:15:54;11.00;;;4.07;;
4698;SDS011;33708;49.466;11.176;2023-04-06T00:18:20;11.30;;;4.30;;
4698;SDS011;33708;49.466;11.176;2023-04-06T00:20:47;12.03;;;4.20;;
4698;SDS011;33708;49.466;11.176;2023-04-06T00:23:13;11.17;;;4.20;;
4698;SDS011;33708;49.466;11.176;2023-04-06T00:25:38;12.07;;;3.73;;
4698;SDS011;33708;49.466;11.176;2023-04-06T00:28:04;12.47;;;4.67;;
4698;SDS011;33708;49.466;11.176;2023-04-06T00:30:30;11.00;;;5.07;;
4698;SDS011;33708;49.466;11.176;2023-04-06T00:32:55;13.10;;;5.27;;
4698;SDS011;33708;49.466;11.176;2023-04-06T00:35:21;12.40;;;5.20;;
4698;SDS011;33708;49.466;11.176;2023-04-06T00:37:47;12.37;;;4.63;;
4698;SDS011;33708;49.466;11.176;2023-04-06T00:40:13;12.57;;;5.23;;
4698;SDS011;33708;49.466;11.176;2023-04-06T00:42:39;17.17;;;4.93;;
4698;SDS011;33708;49.466;11.176;2023-04-06T00:45:05;12.93;;;4.37;;
4698;SDS011;33708;49.466;11.176;2023-04-06T00:47:32;14.00;;;4.37;;
4698;SDS011;33708;49.466;11.176;2023-04-06T00:49:58;13.93;;;4.30;;
4698;SDS011;33708;49.466;11.176;2023-04-06T00:52:24;10.60;;;4.10;;
4698;SDS011;33708;49.466;11.176;2023-04-06T00:54:50;12.30;;;4.40;;
4698;SDS011;33708;49.466;11.176;2023-04-06T00:57:16;11.27;;;3.87;;
4698;SDS011;33708;49.466;11.176;2023-04-06T00:59:42;12.77;;;4.50;;
4698;SDS011;33708;49.466;11.176;2023-04-06T01:02:08;11.50;;;5.50;;
4698;SDS011;33708;49.466;11.176;2023-04-06T01:04:34;12.53;;;5.40;;
4698;SDS011;33708;49.466;11.176;2023-04-06T01:07:00;10.63;;;4.67;;
4698;SDS011;33708;49.466;11.176;2023-04-06T01:09:29;14.80;;;5.53;;
4698;SDS011;33708;49.466;11.176;2023-04-06T01:11:56;15.00;;;4.57;;
4698;SDS011;33708;49.466;11.176;2023-04-06T01:14:22;13.13;;;4.90;;
4698;SDS011;33708;49.466;11.176;2023-04-06T01:16:49;15.50;;;5.47;;
4698;SDS011;33708;49.466;11.176;2023-04-06T01:19:15;12.53;;;4.93;;
4698;SDS011;33708;49.466;11.176;2023-04-06T01:21:41;13.87;;;5.53;;
4698;SDS011;33708;49.466;11.176;2023-04-06T01:24:07;12.63;;;4.37;;
4698;SDS011;33708;49.466;11.176;2023-04-06T01:26:33;12.03;;;4.90;;
4698;SDS011;33708;49.466;11.176;2023-04-06T01:29:00;13.17;;;4.30;;
4698;SDS011;33708;49.466;11.176;2023-04-06T01:31:26;14.20;;;4.30;;
4698;SDS011;33708;49.466;11.176;2023-04-06T01:33:52;13.27;;;3.40;;
4698;SDS011;33708;49.466;11.176;2023-04-06T01:36:18;12.00;;;4.77;;
4698;SDS011;33708;49.466;11.176;2023-04-06T01:38:44;14.93;;;4.50;;
4698;SDS011;33708;49.466;11.176;2023-04-06T01:41:10;13.10;;;4.60;;
4698;SDS011;33708;49.466;11.176;2023-04-06T01:43:36;14.37;;;4.77;;
4698;SDS011;33708;49.466;11.176;2023-04-06T01:46:02;16.43;;;4.57;;
4698;SDS011;33708;49.466;11.176;2023-04-06T01:48:27;11.53;;;4.60;;
4698;SDS011;33708;49.466;11.176;2023-04-06T01:50:53;12.80;;;4.70;;
4698;SDS011;33708;49.466;11.176;2023-04-06T01:53:19;14.73;;;4.27;;
4698;SDS011;33708;49.466;11.176;2023-04-06T01:55:45;13.87;;;4.27;;
4698;SDS011;33708;49.466;11.176;2023-04-06T01:58:11;13.03;;;5.10;;
4698;SDS011;33708;49.466;11.176;2023-04-06T02:00:37;13.20;;;4.90;;
4698;SDS011;33708;49.466;11.176;2023-04-06T02:03:02;12.27;;;4.17;;
4698;SDS011;33708;49.466;11.176;2023-04-06T02:05:29;14.83;;;4.80;;
4698;SDS011;33708;49.466;11.176;2023-04-06T02:07:56;11.00;;;4.07;;
4698;SDS011;33708;49.466;11.176;2023-04-06T02:10:22;14.73;;;4.30;;
4698;SDS011;33708;49.466;11.176;2023-04-06T02:12:48;9.83;;;3.67;;
4698;SDS011;33708;49.466;11.176;2023-04-06T02:15:14;12.30;;;4.93;;
4698;SDS011;33708;49.466;11.176;2023-04-06T02:17:40;11.40;;;3.93;;
4698;SDS011;33708;49.466;11.176;2023-04-06T02:20:06;11.23;;;4.30;;
4698;SDS011;33708;49.466;11.176;2023-04-06T02:22:32;10.63;;;4.07;;
4698;SDS011;33708;49.466;11.176;2023-04-06T02:25:00;9.50;;;3.50;;
4698;SDS011;33708;49.466;11.176;2023-04-06T02:27:26;10.87;;;3.50;;
4698;SDS011;33708;49.466;11.176;2023-04-06T02:29:52;12.47;;;4.70;;
4698;SDS011;33708;49.466;11.176;2023-04-06T02:32:17;12.53;;;4.83;;
4698;SDS011;33708;49.466;11.176;2023-04-06T02:34:43;11.23;;;4.03;;
4698;SDS011;33708;49.466;11.176;2023-04-06T02:37:09;22.63;;;4.40;;
4698;SDS011;33708;49.466;11.176;2023-04-06T02:39:34;10.43;;;4.30;;
4698;SDS011;33708;49.466;11.176;2023-04-06T02:42:00;13.63;;;4.40;;
4698;SDS011;33708;49.466;11.176;2023-04-06T02:44:26;13.17;;;4.43;;
4698;SDS011;33708;49.466;11.176;2023-04-06T02:46:52;10.83;;;4.43;;
4698;SDS011;33708;49.466;11.176;2023-04-06T02:49:17;11.57;;;4.00;;
4698;SDS011;33708;49.466;11.176;2023-04-06T02:51:43;18.77;;;4.50;;
4698;SDS011;33708;49.466;11.176;2023-04-06T02:54:08;9.70;;;4.17;;
4698;SDS011;33708;49.466;11.176;2023-04-06T02:56:34;15.30;;;4.83;;
4698;SDS011;33708;49.466;11.176;2023-04-06T02:59:00;11.23;;;4.30;;
4698;SDS011;33708;49.466;11.176;2023-04-06T03:01:25;10.07;;;4.00;;
4698;SDS011;33708;49.466;11.176;2023-04-06T03:03:51;9.03;;;3.73;;
4698;SDS011;33708;49.466;11.176;2023-04-06T03:06:17;10.53;;;4.40;;
4698;SDS011;33708;49.466;11.176;2023-04-06T03:08:42;11.37;;;4.50;;
4698;SDS011;33708;49.466;11.176;2023-04-06T03:11:08;15.70;;;4.87;;
4698;SDS011;33708;49.466;11.176;2023-04-06T03:13:34;14.07;;;4.20;;
4698;SDS011;33708;49.466;11.176;2023-04-06T03:16:01;15.70;;;4.30;;
4698;SDS011;33708;49.466;11.176;2023-04-06T03:18:26;14.30;;;3.90;;
4698;SDS011;33708;49.466;11.176;2023-04-06T03:20:52;10.90;;;4.17;;
4698;SDS011;33708;49.466;11.176;2023-04-06T03:23:20;12.87;;;4.63;;
4698;SDS011;33708;49.466;11.176;2023-04-06T03:25:46;12.60;;;4.40;;
4698;SDS011;33708;49.466;11.176;2023-04-06T03:28:12;9.27;;;4.03;;
4698;SDS011;33708;49.466;11.176;2023-04-06T03:30:37;10.83;;;4.80;;
4698;SDS011;33708;49.466;11.176;2023-04-06T03:33:03;10.70;;;3.73;;
4698;SDS011;33708;49.466;11.176;2023-04-06T03:35:29;10.57;;;4.00;;
4698;SDS011;33708;49.466;11.176;2023-04-06T03:37:55;12.33;;;5.00;;
4698;SDS011;33708;49.466;11.176;2023-04-06T03:40:20;10.70;;;3.93;;
4698;SDS011;33708;49.466;11.176;2023-04-06T03:42:46;11.00;;;4.40;;
4698;SDS011;33708;49.466;11.176;2023-04-06T03:45:12;12.53;;;4.47;;
4698;SDS011;33708;49.466;11.176;2023-04-06T03:47:40;12.53;;;4.30;;
4698;SDS011;33708;49.466;11.176;2023-04-06T03:50:06;14.57;;;5.27;;
4698;SDS011;33708;49.466;11.176;2023-04-06T03:52:32;10.10;;;4.20;;
4698;SDS011;33708;49.466;11.176;2023-04-06T03:54:59;10.37;;;4.37;;
4698;SDS011;33708;49.466;11.176;2023-04-06T03:57:25;11.90;;;4.73;;
4698;SDS011;33708;49.466;11.176;2023-04-06T03:59:51;14.00;;;4.60;;
4698;SDS011;33708;49.466;11.176;2023-04-06T04:02:16;10.77;;;4.10;;
4698;SDS011;33708;49.466;11.176;2023-04-06T04:04:42;12.70;;;4.77;;
4698;SDS011;33708;49.466;11.176;2023-04-06T04:07:07;14.70;;;4.27;;
4698;SDS011;33708;49.466;11.176;2023-04-06T04:09:33;15.60;;;4.30;;
4698;SDS011;33708;49.466;11.176;2023-04-06T04:11:59;11.43;;;4.00;;
4698;SDS011;33708;49.466;11.176;2023-04-06T04:14:25;11.83;;;4.27;;
4698;SDS011;33708;49.466;11.176;2023-04-06T04:16:50;14.80;;;5.20;;
4698;SDS011;33708;49.466;11.176;2023-04-06T04:19:16;16.87;;;5.13;;
4698;SDS011;33708;49.466;11.176;2023-04-06T04:21:42;15.17;;;5.30;;
4698;SDS011;33708;49.466;11.176;2023-04-06T04:24:11;22.83;;;5.77;;
4698;SDS011;33708;49.466;11.176;2023-04-06T04:26:38;17.53;;;5.20;;
4698;SDS011;33708;49.466;11.176;2023-04-06T04:29:04;13.30;;;5.37;;
4698;SDS011;33708;49.466;11.176;2023-04-06T04:31:29;15.60;;;5.30;;
4698;SDS011;33708;49.466;11.176;2023-04-06T04:33:55;13.97;;;4.90;;
4698;SDS011;33708;49.466;11.176;2023-04-06T04:36:21;17.13;;;5.37;;
4698;SDS011;33708;49.466;11.176;2023-04-06T04:38:48;14.00;;;4.70;;
4698;SDS011;33708;49.466;11.176;2023-04-06T04:41:13;10.83;;;4.40;;
4698;SDS011;33708;49.466;11.176;2023-04-06T04:43:39;22.47;;;5.50;;
4698;SDS011;33708;49.466;11.176;2023-04-06T04:46:04;11.27;;;4.60;;
4698;SDS011;33708;49.466;11.176;2023-04-06T04:48:30;13.53;;;5.03;;
4698;SDS011;33708;49.466;11.176;2023-04-06T04:50:56;14.10;;;5.40;;
4698;SDS011;33708;49.466;11.176;2023-04-06T04:53:21;14.23;;;5.10;;
4698;SDS011;33708;49.466;11.176;2023-04-06T04:55:47;15.27;;;5.13;;
4698;SDS011;33708;49.466;11.176;2023-04-06T04:58:13;14.47;;;4.80;;
4698;SDS011;33708;49.466;11.176;2023-04-06T05:00:45;16.40;;;4.87;;
4698;SDS011;33708;49.466;11.176;2023-04-06T05:03:14;11.60;;;4.40;;
4698;SDS011;33708;49.466;11.176;2023-04-06T05:05:45;10.77;;;4.30;;
4698;SDS011;33708;49.466;11.176;2023-04-06T05:08:11;13.33;;;4.23;;
4698;SDS011;33708;49.466;11.176;2023-04-06T05:10:37;9.90;;;3.77;;
4698;SDS011;33708;49.466;11.176;2023-04-06T05:13:03;15.27;;;4.50;;
4698;SDS011;33708;49.466;11.176;2023-04-06T05:15:28;12.77;;;4.60;;
4698;SDS011;33708;49.466;11.176;2023-04-06T05:17:54;13.20;;;3.80;;
4698;SDS011;33708;49.466;11.176;2023-04-06T05:20:20;12.20;;;3.87;;
4698;SDS011;33708;49.466;11.176;2023-04-06T05:22:45;11.10;;;4.07;;
4698;SDS011;33708;49.466;11.176;2023-04-06T05:25:11;11.90;;;4.30;;
4698;SDS011;33708;49.466;11.176;2023-04-06T05:27:37;13.13;;;4.83;;
4698;SDS011;33708;49.466;11.176;2023-04-06T05:30:04;15.97;;;4.70;;
4698;SDS011;33708;49.466;11.176;2023-04-06T05:32:30;11.53;;;4.50;;
4698;SDS011;33708;49.466;11.176;2023-04-06T05:34:56;12.30;;;3.87;;
4698;SDS011;33708;49.466;11.176;2023-04-06T05:37:21;14.07;;;4.37;;
4698;SDS011;33708;49.466;11.176;2023-04-06T05:39:47;16.43;;;4.53;;
4698;SDS011;33708;49.466;11.176;2023-04-06T05:42:13;15.90;;;5.03;;
4698;SDS011;33708;49.466;11.176;2023-04-06T05:44:38;12.97;;;4.40;;
4698;SDS011;33708;49.466;11.176;2023-04-06T05:47:04;12.60;;;4.60;;
4698;SDS011;33708;49.466;11.176;2023-04-06T05:49:30;13.67;;;5.43;;
4698;SDS011;33708;49.466;11.176;2023-04-06T05:51:55;16.10;;;5.30;;
4698;SDS011;33708;49.466;11.176;2023-04-06T05:54:21;17.03;;;5.57;;
4698;SDS011;33708;49.466;11.176;2023-04-06T05:56:46;12.37;;;5.17;;
4698;SDS011;33708;49.466;11.176;2023-04-06T05:59:12;12.70;;;4.87;;
4698;SDS011;33708;49.466;11.176;2023-04-06T06:01:37;14.40;;;5.40;;
4698;SDS011;33708;49.466;11.176;2023-04-06T06:04:03;13.70;;;4.70;;
4698;SDS011;33708;49.466;11.176;2023-04-06T06:06:29;14.23;;;4.97;;
4698;SDS011;33708;49.466;11.176;2023-04-06T06:08:58;19.23;;;5.70;;
4698;SDS011;33708;49.466;11.176;2023-04-06T06:11:28;18.93;;;6.67;;
4698;SDS011;33708;49.466;11.176;2023-04-06T06:13:54;15.23;;;5.40;;
4698;SDS011;33708;49.466;11.176;2023-04-06T06:16:21;16.40;;;6.43;;
4698;SDS011;33708;49.466;11.176;2023-04-06T06:18:47;18.13;;;7.70;;
4698;SDS011;33708;49.466;11.176;2023-04-06T06:21:13;18.87;;;6.50;;
4698;SDS011;33708;49.466;11.176;2023-04-06T06:23:39;20.03;;;6.63;;
4698;SDS011;33708;49.466;11.176;2023-04-06T06:26:04;18.47;;;7.23;;
4698;SDS011;33708;49.466;11.176;2023-04-06T06:28:31;18.40;;;7.93;;
4698;SDS011;33708;49.466;11.176;2023-04-06T06:30:56;22.83;;;7.67;;
4698;SDS011;33708;49.466;11.176;2023-04-06T06:33:23;19.13;;;7.97;;
4698;SDS011;33708;49.466;11.176;2023-04-06T06:35:49;18.90;;;7.90;;
4698;SDS011;33708;49.466;11.176;2023-04-06T06:38:16;18.73;;;7.80;;
4698;SDS011;33708;49.466;11.176;2023-04-06T06:40:42;18.33;;;7.77;;
4698;SDS011;33708;49.466;11.176;2023-04-06T06:43:07;18.40;;;7.43;;
4698;SDS011;33708;49.466;11.176;2023-04-06T06:45:33;28.73;;;8.40;;
4698;SDS011;33708;49.466;11.176;2023-04-06T06:47:59;17.37;;;7.10;;
4698;SDS011;33708;49.466;11.176;2023-04-06T06:50:24;17.40;;;7.07;;
4698;SDS011;33708;49.466;11.176;2023-04-06T06:52:50;15.90;;;7.13;;
4698;SDS011;33708;49.466;11.176;2023-04-06T06:55:16;16.90;;;7.40;;
4698;SDS011;33708;49.466;11.176;2023-04-06T06:57:43;19.37;;;5.60;;
4698;SDS011;33708;49.466;11.176;2023-04-06T07:00:11;16.87;;;7.33;;
4698;SDS011;33708;49.466;11.176;2023-04-06T07:02:38;21.70;;;7.20;;
4698;SDS011;33708;49.466;11.176;2023-04-06T07:05:03;21.43;;;6.50;;
4698;SDS011;33708;49.466;11.176;2023-04-06T07:07:31;15.17;;;6.50;;
4698;SDS011;33708;49.466;11.176;2023-04-06T07:09:57;15.30;;;7.10;;
4698;SDS011;33708;49.466;11.176;2023-04-06T07:12:23;17.80;;;7.07;;
4698;SDS011;33708;49.466;11.176;2023-04-06T07:14:48;20.13;;;6.80;;
4698;SDS011;33708;49.466;11.176;2023-04-06T07:17:14;14.03;;;6.37;;
4698;SDS011;33708;49.466;11.176;2023-04-06T07:19:40;19.73;;;7.07;;
4698;SDS011;33708;49.466;11.176;2023-04-06T07:22:06;20.97;;;8.00;;
4698;SDS011;33708;49.466;11.176;2023-04-06T07:24:31;19.43;;;7.33;;
4698;SDS011;33708;49.466;11.176;2023-04-06T07:26:58;17.37;;;7.00;;
4698;SDS011;33708;49.466;11.176;2023-04-06T07:29:25;19.93;;;7.20;;
4698;SDS011;33708;49.466;11.176;2023-04-06T07:31:52;17.90;;;6.37;;
4698;SDS011;33708;49.466;11.176;2023-04-06T07:34:18;16.93;;;6.03;;
4698;SDS011;33708;49.466;11.176;2023-04-06T07:36:43;17.87;;;6.77;;
4698;SDS011;33708;49.466;11.176;2023-04-06T07:39:09;14.43;;;7.20;;
4698;SDS011;33708;49.466;11.176;2023-04-06T07:41:35;16.80;;;6.00;;
4698;SDS011;33708;49.466;11.176;2023-04-06T07:44:01;14.37;;;6.17;;
4698;SDS011;33708;49.466;11.176;2023-04-06T07:46:28;16.30;;;6.40;;
4698;SDS011;33708;49.466;11.176;2023-04-06T07:48:53;16.27;;;6.73;;
4698;SDS011;33708;49.466;11.176;2023-04-06T07:51:21;15.77;;;5.97;;
4698;SDS011;33708;49.466;11.176;2023-04-06T07:53:47;20.57;;;6.70;;
4698;SDS011;33708;49.466;11.176;2023-04-06T07:56:12;15.20;;;7.23;;
4698;SDS011;33708;49.466;11.176;2023-04-06T07:58:38;14.97;;;6.83;;
4698;SDS011;33708;49.466;11.176;2023-04-06T08:01:04;17.07;;;6.73;;
4698;SDS011;33708;49.466;11.176;2023-04-06T08:03:30;14.30;;;6.63;;
4698;SDS011;33708;49.466;11.176;2023-04-06T08:05:58;14.80;;;6.70;;
4698;SDS011;33708;49.466;11.176;2023-04-06T08:08:23;14.40;;;7.13;;
4698;SDS011;33708;49.466;11.176;2023-04-06T08:10:49;16.33;;;7.00;;
4698;SDS011;33708;49.466;11.176;2023-04-06T08:13:15;13.40;;;6.70;;
4698;SDS011;33708;49.466;11.176;2023-04-06T08:15:41;14.03;;;7.10;;
4698;SDS011;33708;49.466;11.176;2023-04-06T08:18:07;16.13;;;6.97;;
4698;SDS011;33708;49.466;11.176;2023-04-06T08:20:33;12.30;;;6.70;;
4698;SDS011;33708;49.466;11.176;2023-04-06T08:22:59;18.03;;;7.53;;
4698;SDS011;33708;49.466;11.176;2023-04-06T08:25:25;18.57;;;6.80;;
4698;SDS011;33708;49.466;11.176;2023-04-06T08:27:51;16.17;;;7.20;;
4698;SDS011;33708;49.466;11.176;2023-04-06T08:30:16;14.10;;;7.80;;
4698;SDS011;33708;49.466;11.176;2023-04-06T08:32:43;16.33;;;7.30;;
4698;SDS011;33708;49.466;11.176;2023-04-06T08:35:12;17.77;;;7.63;;
4698;SDS011;33708;49.466;11.176;2023-04-06T08:37:38;13.03;;;6.60;;
4698;SDS011;33708;49.466;11.176;2023-04-06T08:40:04;13.20;;;6.37;;
4698;SDS011;33708;49.466;11.176;2023-04-06T08:42:31;14.80;;;6.87;;
4698;SDS011;33708;49.466;11.176;2023-04-06T08:44:58;13.80;;;6.67;;
4698;SDS011;33708;49.466;11.176;2023-04-06T08:47:24;15.00;;;6.87;;
4698;SDS011;33708;49.466;11.176;2023-04-06T08:49:50;16.43;;;6.63;;
4698;SDS011;33708;49.466;11.176;2023-04-06T08:52:18;15.13;;;6.40;;
4698;SDS011;33708;49.466;11.176;2023-04-06T08:54:44;16.03;;;7.17;;
4698;SDS011;33708;49.466;11.176;2023-04-06T08:57:10;13.70;;;7.37;;
4698;SDS011;33708;49.466;11.176;2023-04-06T08:59:37;16.43;;;6.43;;
4698;SDS011;33708;49.466;11.176;2023-04-06T09:02:03;15.93;;;6.30;;
4698;SDS011;33708;49.466;11.176;2023-04-06T09:04:33;13.30;;;6.73;;
4698;SDS011;33708;49.466;11.176;2023-04-06T09:07:00;15.10;;;7.10;;
4698;SDS011;33708;49.466;11.176;2023-04-06T09:09:26;14.00;;;6.57;;
4698;SDS011;33708;49.466;11.176;2023-04-06T09:11:51;12.80;;;6.57;;
4698;SDS011;33708;49.466;11.176;2023-04-06T09:14:32;16.50;;;7.10;;
4698;SDS011;33708;49.466;11.176;2023-04-06T09:17:02;15.13;;;6.73;;
4698;SDS011;33708;49.466;11.176;2023-04-06T09:19:27;19.80;;;6.07;;
4698;SDS011;33708;49.466;11.176;2023-04-06T09:22:05;14.27;;;6.77;;
4698;SDS011;33708;49.466;11.176;2023-04-06T09:24:44;14.40;;;6.87;;
4698;SDS011;33708;49.466;11.176;2023-04-06T09:27:12;14.40;;;6.73;;
4698;SDS011;33708;49.466;11.176;2023-04-06T09:29:40;14.00;;;6.93;;
4698;SDS011;33708;49.466;11.176;2023-04-06T09:32:07;15.10;;;7.10;;
4698;SDS011;33708;49.466;11.176;2023-04-06T09:34:36;15.40;;;6.67;;
4698;SDS011;33708;49.466;11.176;2023-04-06T09:37:15;12.50;;;6.27;;
4698;SDS011;33708;49.466;11.176;2023-04-06T09:39:41;14.30;;;6.57;;
4698;SDS011;33708;49.466;11.176;2023-04-06T09:42:07;13.93;;;6.50;;
4698;SDS011;33708;49.466;11.176;2023-04-06T09:44:33;15.43;;;7.20;;
4698;SDS011;33708;49.466;11.176;2023-04-06T09:46:59;15.83;;;7.10;;
4698;SDS011;33708;49.466;11.176;2023-04-06T09:49:28;14.30;;;7.47;;
4698;SDS011;33708;49.466;11.176;2023-04-06T09:52:02;17.00;;;8.00;;
4698;SDS011;33708;49.466;11.176;2023-04-06T09:54:29;16.17;;;7.77;;
4698;SDS011;33708;49.466;11.176;2023-04-06T09:59:44;14.67;;;7.70;;
4698;SDS011;33708;49.466;11.176;2023-04-06T10:02:35;15.23;;;7.30;;
4698;SDS011;33708;49.466;11.176;2023-04-06T10:07:43;18.30;;;8.30;;
4698;SDS011;33708;49.466;11.176;2023-04-06T10:10:11;16.43;;;8.03;;
4698;SDS011;33708;49.466;11.176;2023-04-06T10:12:39;14.50;;;7.43;;
4698;SDS011;33708;49.466;11.176;2023-04-06T10:15:05;16.40;;;7.97;;
4698;SDS011;33708;49.466;11.176;2023-04-06T10:17:32;15.57;;;7.60;;
4698;SDS011;33708;49.466;11.176;2023-04-06T10:19:59;19.20;;;9.10;;
4698;SDS011;33708;49.466;11.176;2023-04-06T10:22:43;15.10;;;7.80;;
4698;SDS011;33708;49.466;11.176;2023-04-06T10:25:25;16.53;;;8.63;;
4698;SDS011;33708;49.466;11.176;2023-04-06T10:27:58;15.23;;;9.03;;
4698;SDS011;33708;49.466;11.176;2023-04-06T10:30:25;17.30;;;9.83;;
4698;SDS011;33708;49.466;11.176;2023-04-06T10:32:52;18.23;;;8.70;;
4698;SDS011;33708;49.466;11.176;2023-04-06T10:35:18;18.90;;;8.80;;
4698;SDS011;33708;49.466;11.176;2023-04-06T10:37:59;16.30;;;8.40;;
4698;SDS011;33708;49.466;11.176;2023-04-06T10:40:27;16.13;;;8.20;;
4698;SDS011;33708;49.466;11.176;2023-04-06T10:42:53;18.40;;;8.47;;
4698;SDS011;33708;49.466;11.176;2023-04-06T10:45:26;15.07;;;7.80;;
4698;SDS011;33708;49.466;11.176;2023-04-06T10:47:56;27.87;;;8.73;;
4698;SDS011;33708;49.466;11.176;2023-04-06T10:50:22;17.50;;;7.97;;
4698;SDS011;33708;49.466;11.176;2023-04-06T10:53:01;14.67;;;8.23;;
4698;SDS011;33708;49.466;11.176;2023-04-06T10:55:28;17.40;;;8.33;;
4698;SDS011;33708;49.466;11.176;2023-04-06T10:57:54;14.03;;;7.40;;
4698;SDS011;33708;49.466;11.176;2023-04-06T11:00:20;16.23;;;7.70;;
4698;SDS011;33708;49.466;11.176;2023-04-06T11:02:46;18.83;;;7.87;;
4698;SDS011;33708;49.466;11.176;2023-04-06T11:05:12;13.33;;;7.23;;
4698;SDS011;33708;49.466;11.176;2023-04-06T11:07:39;18.33;;;8.77;;
4698;SDS011;33708;49.466;11.176;2023-04-06T11:10:08;15.83;;;8.10;;
4698;SDS011;33708;49.466;11.176;2023-04-06T11:12:34;15.30;;;7.60;;
4698;SDS011;33708;49.466;11.176;2023-04-06T11:15:01;13.50;;;7.03;;
4698;SDS011;33708;49.466;11.176;2023-04-06T11:17:35;16.10;;;7.33;;
4698;SDS011;33708;49.466;11.176;2023-04-06T11:20:02;15.27;;;8.30;;
4698;SDS011;33708;49.466;11.176;2023-04-06T11:22:30;17.00;;;8.23;;
4698;SDS011;33708;49.466;11.176;2023-04-06T11:25:06;14.43;;;7.20;;
4698;SDS011;33708;49.466;11.176;2023-04-06T11:27:33;14.27;;;7.43;;
4698;SDS011;33708;49.466;11.176;2023-04-06T11:30:00;16.90;;;8.20;;
4698;SDS011;33708;49.466;11.176;2023-04-06T11:32:26;15.33;;;8.27;;
4698;SDS011;33708;49.466;11.176;2023-04-06T11:34:52;17.73;;;8.07;;
4698;SDS011;33708;49.466;11.176;2023-04-06T11:37:17;14.60;;;7.57;;
4698;SDS011;33708;49.466;11.176;2023-04-06T11:42:25;14.97;;;6.77;;
4698;SDS011;33708;49.466;11.176;2023-04-06T11:44:55;19.07;;;7.37;;
4698;SDS011;33708;49.466;11.176;2023-04-06T11:47:28;15.10;;;6.50;;
4698;SDS011;33708;49.466;11.176;2023-04-06T11:49:55;13.60;;;6.60;;
4698;SDS011;33708;49.466;11.176;2023-04-06T11:52:24;15.00;;;7.17;;
4698;SDS011;33708;49.466;11.176;2023-04-06T11:54:52;14.97;;;6.87;;
4698;SDS011;33708;49.466;11.176;2023-04-06T11:57:20;13.53;;;6.97;;
4698;SDS011;33708;49.466;11.176;2023-04-06T11:59:49;15.00;;;6.60;;
4698;SDS011;33708;49.466;11.176;2023-04-06T12:02:15;14.50;;;6.97;;
4698;SDS011;33708;49.466;11.176;2023-04-06T12:04:40;14.07;;;6.60;;
4698;SDS011;33708;49.466;11.176;2023-04-06T12:07:06;13.70;;;6.97;;
4698;SDS011;33708;49.466;11.176;2023-04-06T12:09:31;14.83;;;7.00;;
4698;SDS011;33708;49.466;11.176;2023-04-06T12:11:59;14.13;;;7.50;;
4698;SDS011;33708;49.466;11.176;2023-04-06T12:14:25;15.97;;;7.23;;
4698;SDS011;33708;49.466;11.176;2023-04-06T12:16:51;17.10;;;7.83;;
4698;SDS011;33708;49.466;11.176;2023-04-06T12:19:17;16.23;;;7.87;;
4698;SDS011;33708;49.466;11.176;2023-04-06T12:21:42;15.53;;;7.70;;
4698;SDS011;33708;49.466;11.176;2023-04-06T12:24:08;15.87;;;7.53;;
4698;SDS011;33708;49.466;11.176;2023-04-06T12:26:33;14.23;;;7.50;;
4698;SDS011;33708;49.466;11.176;2023-04-06T12:29:01;17.17;;;7.80;;
4698;SDS011;33708;49.466;11.176;2023-04-06T12:31:31;15.90;;;7.10;;
4698;SDS011;33708;49.466;11.176;2023-04-06T12:33:58;14.30;;;6.97;;
4698;SDS011;33708;49.466;11.176;2023-04-06T12:36:23;14.57;;;7.30;;
4698;SDS011;33708;49.466;11.176;2023-04-06T12:38:50;13.70;;;7.23;;
4698;SDS011;33708;49.466;11.176;2023-04-06T12:41:18;12.40;;;5.53;;
4698;SDS011;33708;49.466;11.176;2023-04-06T12:43:45;15.83;;;7.50;;
4698;SDS011;33708;49.466;11.176;2023-04-06T12:46:11;15.67;;;6.50;;
4698;SDS011;33708;49.466;11.176;2023-04-06T12:48:36;12.43;;;6.10;;
4698;SDS011;33708;49.466;11.176;2023-04-06T12:51:03;13.07;;;6.10;;
4698;SDS011;33708;49.466;11.176;2023-04-06T12:53:31;14.70;;;7.90;;
4698;SDS011;33708;49.466;11.176;2023-04-06T12:55:57;18.60;;;7.40;;
4698;SDS011;33708;49.466;11.176;2023-04-06T12:58:23;14.90;;;7.50;;
4698;SDS011;33708;49.466;11.176;2023-04-06T13:00:51;13.03;;;7.17;;
4698;SDS011;33708;49.466;11.176;2023-04-06T13:03:18;21.20;;;6.90;;
4698;SDS011;33708;49.466;11.176;2023-04-06T13:05:45;19.57;;;6.73;;
4698;SDS011;33708;49.466;11.176;2023-04-06T13:08:11;16.17;;;7.57;;
4698;SDS011;33708;49.466;11.176;2023-04-06T13:10:37;16.17;;;7.60;;
4698;SDS011;33708;49.466;11.176;2023-04-06T13:13:03;19.40;;;7.20;;
4698;SDS011;33708;49.466;11.176;2023-04-06T13:15:29;13.40;;;6.87;;
4698;SDS011;33708;49.466;11.176;2023-04-06T13:17:54;17.83;;;8.47;;
4698;SDS011;33708;49.466;11.176;2023-04-06T13:20:20;16.50;;;7.90;;
4698;SDS011;33708;49.466;11.176;2023-04-06T13:22:46;19.70;;;7.93;;
4698;SDS011;33708;49.466;11.176;2023-04-06T13:25:12;21.43;;;8.10;;
4698;SDS011;33708;49.466;11.176;2023-04-06T13:27:37;18.43;;;8.27;;
4698;SDS011;33708;49.466;11.176;2023-04-06T13:30:03;15.83;;;7.83;;
4698;SDS011;33708;49.466;11.176;2023-04-06T13:32:30;15.87;;;8.80;;
4698;SDS011;33708;49.466;11.176;2023-04-06T13:34:55;15.67;;;7.73;;
4698;SDS011;33708;49.466;11.176;2023-04-06T13:37:21;14.10;;;6.80;;
4698;SDS011;33708;49.466;11.176;2023-04-06T13:39:47;14.27;;;7.13;;
4698;SDS011;33708;49.466;11.176;2023-04-06T13:42:13;32.13;;;8.03;;
4698;SDS011;33708;49.466;11.176;2023-04-06T13:44:38;18.50;;;7.10;;
4698;SDS011;33708;49.466;11.176;2023-04-06T13:47:04;14.17;;;7.50;;
4698;SDS011;33708;49.466;11.176;2023-04-06T13:49:30;15.30;;;8.07;;
4698;SDS011;33708;49.466;11.176;2023-04-06T13:51:56;16.13;;;7.93;;
4698;SDS011;33708;49.466;11.176;2023-04-06T13:54:22;16.23;;;8.30;;
4698;SDS011;33708;49.466;11.176;2023-04-06T13:56:47;13.77;;;6.60;;
4698;SDS011;33708;49.466;11.176;2023-04-06T13:59:13;17.30;;;8.23;;
4698;SDS011;33708;49.466;11.176;2023-04-06T14:01:38;13.93;;;7.40;;
4698;SDS011;33708;49.466;11.176;2023-04-06T14:04:04;16.27;;;7.87;;
4698;SDS011;33708;49.466;11.176;2023-04-06T14:06:30;20.63;;;7.67;;
4698;SDS011;33708;49.466;11.176;2023-04-06T14:08:55;15.20;;;7.53;;
4698;SDS011;33708;49.466;11.176;2023-04-06T14:11:22;15.17;;;6.47;;
4698;SDS011;33708;49.466;11.176;2023-04-06T14:13:47;14.10;;;7.90;;
4698;SDS011;33708;49.466;11.176;2023-04-06T14:16:13;15.17;;;8.10;;
4698;SDS011;33708;49.466;11.176;2023-04-06T14:18:39;18.20;;;7.40;;
4698;SDS011;33708;49.466;11.176;2023-04-06T14:21:04;16.47;;;7.93;;
4698;SDS011;33708;49.466;11.176;2023-04-06T14:23:31;17.30;;;8.83;;
4698;SDS011;33708;49.466;11.176;2023-04-06T14:26:04;17.17;;;8.23;;
4698;SDS011;33708;49.466;11.176;2023-04-06T14:28:32;19.70;;;8.87;;
4698;SDS011;33708;49.466;11.176;2023-04-06T14:31:01;14.53;;;8.20;;
4698;SDS011;33708;49.466;11.176;2023-04-06T14:33:34;15.80;;;7.27;;
4698;SDS011;33708;49.466;11.176;2023-04-06T14:36:02;17.40;;;7.77;;
4698;SDS011;33708;49.466;11.176;2023-04-06T14:38:28;17.33;;;8.60;;
4698;SDS011;33708;49.466;11.176;2023-04-06T14:40:53;15.13;;;8.00;;